EW8307 Weather Reports


Display with metric or nautical units.
time (UTC)temp
F
wind
direction
speed
MPH
gust
MPH
rain 1hr
in
rain 24hr
in
rain mn
in
humidity
%
barometer
mb
20260507010002 58 230 1.0 8.0 0.00 0.01 0.01 94 1002.2
20260507004504 58 217 0.0 6.0 0.00 0.01 0.01 94 1002.2
20260507003001 57 207 0.0 5.0 0.00 0.01 0.01 94 1002.2
20260507001501 57 258 1.0 7.0 0.00 0.01 0.01 94 1002.1
20260507000004 57 222 0.0 6.0 0.00 0.01 0.01 94 1002.1
20260506234501 58 187 0.0 5.0 0.00 0.01 0.01 94 1001.6
20260506233000 58 229 1.0 6.0 0.00 0.01 0.01 94 1001.8
20260506231601 58 160 0.0 2.0 0.00 0.01 0.01 94 1001.7
20260506230001 58 160 0.0 5.0 0.00 0.01 0.01 94 1001.6
20260506224601 58 157 0.0 5.0 0.00 0.01 0.01 94 1001.6
20260506223105 58 119 0.0 4.0 0.00 0.01 0.01 94 1001.7
20260506221604 58 185 0.0 4.0 0.00 0.01 0.01 93 1001.9
20260506214601 58 195 1.0 6.0 0.00 0.01 0.01 93 1002.2
20260506213100 59 150 0.0 5.0 0.00 0.01 0.01 92 1002.3
20260506211557 59 234 0.0 4.0 0.00 0.01 0.01 92 1002.4
20260506204556 59 160 0.0 8.0 0.00 0.01 0.01 91 1002.5
20260506203053 59 177 0.0 5.0 0.00 0.01 0.01 91 1002.7
20260506201552 59 177 1.0 7.0 0.00 0.01 0.01 91 1002.6
20260506194552 59 220 0.0 5.0 0.00 0.01 0.01 90 1002.8
20260506193055 60 191 1.0 7.0 0.00 0.01 0.01 89 1002.8
20260506191558 61 149 0.0 5.0 0.01 0.01 0.01 89 1002.9
20260506184548 62 233 1.0 7.0 0.01 0.01 0.01 84 1003.0
20260506183046 64 213 2.0 8.0 0.01 0.01 0.01 80 1003.3
20260506181600 65 247 2.0 8.0 0.00 0.00 0.00 76 1003.5
20260506174545 68 234 2.0 13.0 0.00 0.00 0.00 66 1003.6
20260506173112 70 176 4.0 11.0 0.00 0.00 0.00 62 1003.4
20260506171547 71 207 5.0 14.0 0.00 0.00 0.00 59 1003.4
20260506164543 72 129 4.0 10.0 0.00 0.00 0.00 58 1003.6
20260506163051 71 179 0.0 13.0 0.00 0.00 0.00 61 1003.8
20260506161540 71 242 1.0 9.0 0.00 0.00 0.00 60 1003.9
20260506154538 69 219 4.0 13.0 0.00 0.00 0.00 62 1004.2
20260506153032 69 214 3.0 14.0 0.00 0.00 0.00 64 1004.5
20260506151531 69 109 2.0 8.0 0.00 0.00 0.00 64 1004.6
20260506144529 68 194 0.0 6.0 0.00 0.00 0.00 68 1004.8
20260506143027 67 223 1.0 7.0 0.00 0.00 0.00 70 1005.2
20260506141521 66 210 2.0 10.0 0.00 0.00 0.00 71 1005.0
20260506134517 65 218 2.0 8.0 0.00 0.00 0.00 74 1005.1
20260506133015 64 152 1.0 7.0 0.00 0.00 0.00 76 1005.2
20260506131511 63 205 1.0 5.0 0.00 0.00 0.00 77 1005.7
20260506124509 62 228 0.0 10.0 0.00 0.00 0.00 79 1005.7
20260506123008 62 225 3.0 9.0 0.00 0.00 0.00 80 1005.6
20260506121508 61 173 1.0 9.0 0.00 0.00 0.00 81 1005.8
20260506114508 60 126 1.0 7.0 0.00 0.00 0.00 83 1005.7
20260506113007 59 218 1.0 7.0 0.00 0.00 0.00 84 1006.0
20260506111506 59 183 0.0 5.0 0.00 0.00 0.00 84 1006.2
20260506104515 58 236 1.0 5.0 0.00 0.00 0.00 85 1005.9
20260506103007 57 209 2.0 5.0 0.00 0.00 0.00 85 1005.9
20260506101507 57 214 1.0 6.0 0.00 0.00 0.00 85 1005.9
20260506094504 57 216 1.0 6.0 0.00 0.00 0.00 85 1005.8
20260506093003 58 187 0.0 6.0 0.00 0.00 0.00 84 1005.8
20260506091503 58 178 1.0 4.0 0.00 0.00 0.00 84 1005.9
20260506084600 58 144 2.0 7.0 0.00 0.00 0.00 83 1005.9
20260506083059 58 202 0.0 6.0 0.00 0.00 0.00 82 1005.9
20260506081601 58 207 0.0 7.0 0.00 0.00 0.00 82 1006.0
20260506073055 59 191 0.0 7.0 0.00 0.00 0.00 80 1006.0
20260506071608 59 235 1.0 5.0 0.00 0.00 0.00 79 1005.9
20260506061545 61 225 1.0 7.0 0.00 0.00 0.00 76 1005.5
20260506044541 62 186 1.0 7.0 0.00 0.00 0.00 70 1006.1
20260506043048 62 327 2.0 8.0 0.00 0.00 0.00 70 1006.1
20260506041553 61 227 2.0 7.0 0.00 0.00 0.00 70 1005.9
20260506034540 61 151 1.0 8.0 0.00 0.00 0.00 70 1006.0
20260506033039 61 188 1.0 7.0 0.00 0.00 0.00 70 1005.9
20260506031540 61 202 0.0 5.0 0.00 0.00 0.00 70 1005.9
20260506024544 61 175 1.0 7.0 0.00 0.00 0.00 69 1005.8
20260506023039 62 242 2.0 8.0 0.00 0.00 0.00 68 1005.9
20260506021551 62 206 1.0 6.0 0.00 0.00 0.00 67 1006.0
20260506014539 63 236 2.0 11.0 0.00 0.00 0.00 64 1005.8
20260506013041 63 182 1.0 8.0 0.00 0.00 0.00 63 1005.5
20260506011545 64 115 1.0 9.0 0.00 0.00 0.00 62 1005.5